Bookmark and Share
Track history (hours):
 

Elissa

More information available from US FCC via Universal Licensing System and Coast Guard Vessel Documentation Center.

Last reported at 2014-Apr-15 16:33 UTC. Time now 2014-Apr-16 16:03 UTC.
Position N 30°02' W 090°36'.

Length 26 m; draft 3.6 m.

Type: Towing. MMSI: 367306290.

NotesDate/timePositionNaut miles runAvg speedWind from/ knotsBaromVisibWave heightAir tempDewpointWater temp
2014-Apr-15 16:33N 30°02' W 090°36'4 4.4
2014-Apr-15 15:33N 30°03' W 090°31'0 0.1
2014-Apr-15 14:33N 30°03' W 090°31'6 1.5
2014-Apr-15 10:34N 29°59' W 090°25'0 0.0
2014-Apr-15 09:34N 29°59' W 090°25'0 0.0
2014-Apr-15 08:34N 29°59' W 090°25'0 0.0
2014-Apr-15 07:34N 29°59' W 090°25'1 1.0
2014-Apr-15 06:34N 29°59' W 090°24'3 3.5
2014-Apr-15 05:34N 29°56' W 090°21'11 0.9
2014-Apr-14 17:33N 30°03' W 090°32'0 0.0
2014-Apr-14 16:34N 30°03' W 090°32'0 0.0
2014-Apr-14 15:33N 30°03' W 090°32'0 0.4
2014-Apr-14 14:33N 30°03' W 090°32'16 0.4
2014-Apr-12 19:11N 29°59' W 090°49'3 4.7
2014-Apr-12 18:32N 30°01' W 090°46'5 4.9
2014-Apr-12 17:33N 30°02' W 090°41'5 4.7
2014-Apr-12 16:33N 30°03' W 090°36'4 4.1
2014-Apr-12 15:33N 30°03' W 090°31'1 0.8
2014-Apr-12 14:33N 30°03' W 090°30'0 0.0
2014-Apr-12 13:33N 30°03' W 090°30'0 0.0
2014-Apr-12 12:33N 30°03' W 090°30'0 0.0
2014-Apr-12 11:33N 30°03' W 090°30'0 0.0
2014-Apr-12 10:33N 30°03' W 090°30'0 0.0
2014-Apr-12 09:33N 30°03' W 090°30'0 0.0
2014-Apr-12 08:33N 30°03' W 090°30'0 0.0
2014-Apr-12 07:33N 30°03' W 090°30'1 1.2
2014-Apr-12 06:33N 30°03' W 090°29'4 4.2
2014-Apr-12 05:33N 29°60' W 090°26'1 1.4
2014-Apr-12 04:33N 29°59' W 090°24'4 3.7
2014-Apr-12 03:33N 29°56' W 090°21'4 3.8
2014-Apr-12 02:28N 29°58' W 090°17'4 3.5
2014-Apr-12 01:20N 29°56' W 090°13'5 0.3
2014-Apr-11 10:16N 29°57' W 090°19'5 6.5
2014-Apr-11 09:33N 29°58' W 090°24'2 1.7
2014-Apr-11 08:33N 29°59' W 090°25'0 0.3
2014-Apr-11 07:33N 29°60' W 090°25'2 1.9
2014-Apr-11 06:33N 29°60' W 090°28'5 4.8
2014-Apr-11 05:33N 30°03' W 090°32'7 6.7
2014-Apr-11 04:33N 30°03' W 090°40'9 8.7
2014-Apr-11 03:33N 29°59' W 090°49'4 0.1
2014-Apr-09 09:11N 30°03' W 090°51'4 2.4
2014-Apr-09 07:25N 29°59' W 090°48'3 3.5
2014-Apr-09 06:33N 30°01' W 090°45'3 3.2
2014-Apr-09 05:33N 30°02' W 090°42'3 3.2
2014-Apr-09 04:33N 30°03' W 090°38'3 2.9
2014-Apr-09 03:33N 30°03' W 090°35'3 3.4
2014-Apr-09 02:33N 30°03' W 090°31'3 2.7
2014-Apr-09 01:33N 30°02' W 090°28'3 2.7
2014-Apr-09 00:33N 29°60' W 090°26'1 1.4
2014-Apr-08 23:33N 29°59' W 090°25'0 0.1
2014-Apr-08 22:33N 29°59' W 090°25'6 0.3
2014-Apr-07 23:32N 29°57' W 090°18'10 2.2
2014-Apr-07 19:11N 30°01' W 090°28'18 0.4
2014-Apr-05 20:17N 29°59' W 090°49'3 4.2
2014-Apr-05 19:32N 30°01' W 090°46'4 4.0
2014-Apr-05 18:33N 30°01' W 090°42'3 2.9
2014-Apr-05 17:33N 30°03' W 090°39'  

Dump ship's entire track history

sailing weather and tide predictions

Elissa — WDD9058 — position and weather